createdAt,value
2023-10-06T00:05:45.184Z,10.60
2023-10-06T00:10:46.575Z,10.60
2023-10-06T00:20:55.399Z,13.90
2023-10-06T00:25:46.706Z,10.70
2023-10-06T00:30:47.449Z,10.70
2023-10-06T00:35:45.068Z,11.70
2023-10-06T00:50:45.583Z,10.70
2023-10-06T00:55:45.928Z,12.30
2023-10-06T01:05:45.943Z,10.70
2023-10-06T01:10:51.182Z,10.70
2023-10-06T01:20:46.252Z,15.40
2023-10-06T01:25:45.235Z,12.10
2023-10-06T01:30:45.254Z,12.10
2023-10-06T01:35:46.327Z,13.00
2023-10-06T01:45:45.676Z,15.40
2023-10-06T02:05:45.370Z,16.20
2023-10-06T02:10:47.784Z,16.20
2023-10-06T02:25:45.376Z,14.30
2023-10-06T02:30:51.834Z,14.30
2023-10-06T02:35:46.240Z,15.50
2023-10-06T02:40:45.559Z,15.50
2023-10-06T02:45:45.475Z,15.10
2023-10-06T02:55:46.013Z,12.00
2023-10-06T03:00:50.310Z,12.00
2023-10-06T03:05:49.837Z,13.30
2023-10-06T03:10:45.696Z,13.30
2023-10-06T03:25:49.395Z,12.80
2023-10-06T03:35:45.997Z,12.00
2023-10-06T03:40:53.388Z,12.00
2023-10-06T03:45:47.959Z,9.90
2023-10-06T03:50:45.689Z,9.90
2023-10-06T03:55:45.837Z,13.60
2023-10-06T04:00:49.669Z,13.60
2023-10-06T04:05:48.808Z,15.20
2023-10-06T04:10:52.033Z,15.20
2023-10-06T04:15:49.216Z,15.10
2023-10-06T04:20:46.486Z,15.10
2023-10-06T04:25:46.458Z,16.00
2023-10-06T04:40:46.784Z,15.00
2023-10-06T04:45:47.201Z,15.60
2023-10-06T04:50:46.110Z,15.60
2023-10-06T04:55:45.820Z,14.40
2023-10-06T05:00:53.647Z,14.40
2023-10-06T05:05:45.848Z,14.30
2023-10-06T05:10:46.350Z,14.30
2023-10-06T05:15:45.816Z,15.20
2023-10-06T05:20:46.714Z,15.20
2023-10-06T05:25:46.256Z,16.90
2023-10-06T05:40:48.322Z,15.00
2023-10-06T05:50:46.564Z,15.00
2023-10-06T06:05:50.218Z,16.40
2023-10-06T06:10:46.414Z,16.40
2023-10-06T06:25:46.368Z,17.30
2023-10-06T06:30:47.314Z,17.30
2023-10-06T06:40:46.193Z,19.10
2023-10-06T06:50:48.529Z,18.90
2023-10-06T07:00:47.863Z,18.50
2023-10-06T07:05:46.105Z,17.30
2023-10-06T07:15:46.177Z,20.50
2023-10-06T07:20:48.037Z,20.50
2023-10-06T07:25:46.624Z,16.90
2023-10-06T07:30:46.102Z,16.90
2023-10-06T07:40:46.338Z,18.20
2023-10-06T07:45:46.930Z,20.20
2023-10-06T07:50:46.328Z,20.20
2023-10-06T07:55:50.403Z,20.80
2023-10-06T08:00:46.200Z,20.80
2023-10-06T08:10:46.265Z,16.90
2023-10-06T08:15:46.680Z,19.60
2023-10-06T08:20:46.299Z,19.60
2023-10-06T08:25:59.630Z,20.90
2023-10-06T08:30:46.292Z,20.90
2023-10-06T08:35:46.935Z,20.60
2023-10-06T08:40:46.497Z,20.60
2023-10-06T08:50:48.010Z,19.40
2023-10-06T09:00:46.712Z,21.50
2023-10-06T09:05:46.620Z,21.00
2023-10-06T09:10:51.138Z,21.00
2023-10-06T09:15:59.620Z,18.10
2023-10-06T09:20:48.334Z,18.10
2023-10-06T09:25:47.336Z,18.10
2023-10-06T09:40:47.299Z,15.40
2023-10-06T09:50:46.780Z,14.30
2023-10-06T10:00:49.681Z,14.80
2023-10-06T10:16:02.396Z,17.40
2023-10-06T10:20:47.719Z,17.40
2023-10-06T10:25:46.674Z,15.00
2023-10-06T10:30:58.503Z,15.00
2023-10-06T10:36:19.312Z,12.80
2023-10-06T10:40:48.913Z,12.80
2023-10-06T10:45:47.300Z,13.50
2023-10-06T10:50:55.564Z,13.50
2023-10-06T11:05:47.896Z,16.30
2023-10-06T11:10:57.998Z,15.50
2023-10-06T11:15:50.812Z,15.50
2023-10-06T11:20:48.125Z,13.00
2023-10-06T11:25:48.670Z,13.00
2023-10-06T11:30:47.054Z,15.80
2023-10-06T11:35:46.961Z,15.80
2023-10-06T11:40:46.879Z,12.20
2023-10-06T11:45:47.156Z,12.20
2023-10-06T11:50:46.911Z,15.50
2023-10-06T11:55:46.876Z,15.50
2023-10-06T12:00:47.778Z,12.20
2023-10-06T12:05:55.922Z,12.20
2023-10-06T12:10:48.660Z,11.10
2023-10-06T12:15:47.085Z,11.10
2023-10-06T12:20:46.968Z,9.40
2023-10-06T12:25:46.994Z,9.40
2023-10-06T12:30:46.988Z,15.00
2023-10-06T12:35:50.166Z,15.00
2023-10-06T12:40:47.061Z,11.60
2023-10-06T12:45:47.363Z,11.60
2023-10-06T12:50:47.335Z,16.10
2023-10-06T12:55:56.326Z,16.10
2023-10-06T13:00:47.088Z,15.90
2023-10-06T13:05:48.121Z,15.90
2023-10-06T13:10:47.937Z,14.20
2023-10-06T13:20:47.203Z,17.80
2023-10-06T13:25:47.469Z,17.80
2023-10-06T13:30:47.191Z,15.90
2023-10-06T13:35:48.372Z,15.90
2023-10-06T13:40:47.117Z,13.10
2023-10-06T13:50:47.301Z,13.10
2023-10-06T13:55:47.331Z,13.10
2023-10-06T14:00:47.209Z,12.70
2023-10-06T14:05:53.020Z,12.70
2023-10-06T14:10:49.660Z,14.80
2023-10-06T14:15:49.717Z,14.80
2023-10-06T14:20:52.272Z,16.60
2023-10-06T14:25:47.299Z,16.60
2023-10-06T14:30:49.485Z,17.20
2023-10-06T14:35:53.466Z,17.20
2023-10-06T14:41:05.459Z,16.80
2023-10-06T14:46:01.882Z,16.80
2023-10-06T14:50:55.116Z,17.60
2023-10-06T15:00:47.695Z,16.20
2023-10-06T15:05:48.529Z,16.20
2023-10-06T15:10:48.319Z,15.60
2023-10-06T15:15:47.410Z,15.60
2023-10-06T15:20:49.538Z,16.60
2023-10-06T15:30:47.445Z,20.20
2023-10-06T15:35:47.446Z,20.20
2023-10-06T15:45:55.780Z,18.30
2023-10-06T15:50:47.485Z,21.60
2023-10-06T15:55:47.544Z,21.60
2023-10-06T16:00:48.764Z,15.60
2023-10-06T16:05:47.719Z,15.60
2023-10-06T16:10:47.624Z,14.40
2023-10-06T16:16:04.095Z,14.40
2023-10-06T16:20:47.633Z,20.80
2023-10-06T16:25:47.702Z,20.80
2023-10-06T16:30:50.259Z,18.70
2023-10-06T16:35:47.956Z,18.70
2023-10-06T16:40:47.692Z,18.80
2023-10-06T16:50:47.811Z,20.30
2023-10-06T16:55:56.878Z,20.30
2023-10-06T17:00:47.789Z,21.80
2023-10-06T17:05:49.085Z,21.80
2023-10-06T17:10:47.805Z,20.70
2023-10-06T17:15:49.497Z,20.70
2023-10-06T17:20:48.022Z,18.20
2023-10-06T17:30:48.869Z,20.20
2023-10-06T17:35:47.772Z,20.20
2023-10-06T17:45:47.789Z,18.00
2023-10-06T17:55:52.910Z,19.60
2023-10-06T18:00:48.553Z,21.60
2023-10-06T18:05:52.360Z,21.60
2023-10-06T18:10:47.933Z,18.20
2023-10-06T18:20:48.280Z,19.20
2023-10-06T18:25:47.918Z,19.20
2023-10-06T18:50:57.508Z,22.40
2023-10-06T18:55:51.212Z,22.40
2023-10-06T19:00:49.705Z,19.50
2023-10-06T19:15:50.980Z,20.40
2023-10-06T19:25:52.009Z,20.00
2023-10-06T19:55:48.444Z,17.10
2023-10-06T20:05:48.929Z,19.40
2023-10-06T20:10:52.809Z,20.30
2023-10-06T20:15:48.190Z,20.30
2023-10-06T20:20:48.460Z,18.20
2023-10-06T20:25:48.362Z,18.20
2023-10-06T20:30:48.315Z,22.50
2023-10-06T20:35:48.421Z,22.50
2023-10-06T20:40:48.430Z,18.60
2023-10-06T20:45:48.332Z,18.60
2023-10-06T20:50:48.280Z,21.00
2023-10-06T21:05:48.842Z,17.80
2023-10-06T21:15:48.380Z,22.70
2023-10-06T21:25:51.149Z,18.20
2023-10-06T21:30:49.501Z,19.40
2023-10-06T21:35:48.416Z,19.40
2023-10-06T21:45:49.246Z,22.10
2023-10-06T21:50:48.955Z,21.20
2023-10-06T21:55:50.005Z,21.20
2023-10-06T22:15:48.508Z,22.40
2023-10-06T22:20:49.133Z,20.80
2023-10-06T22:35:48.761Z,18.70
2023-10-06T22:40:49.577Z,19.80
2023-10-06T22:45:49.423Z,19.80
2023-10-06T22:55:52.648Z,20.00
2023-10-06T23:05:48.705Z,21.70
2023-10-06T23:35:48.750Z,18.20
2023-10-06T23:40:48.998Z,20.10
2023-10-06T23:45:50.466Z,20.10
